Time;durP1;ratioP1;P1;durP2;ratioP2;P2;SDS_P1;SDS_P2;PMS_P1;PMS_P2;Temp;Humidity;BMP_temperature;BMP_pressure;BME280_temperature;BME280_humidity;BME280_pressure;Samples;Min_cycle;Max_cycle;Signal;HPM_P1;HPM_P2
2022/05/27 00:02:15;;;;;;;6.15;1.50;;;;;;;11.55;86.35;100661.06;5154639;27;20130;-82
2022/05/27 00:04:42;;;;;;;5.47;1.27;;;;;;;11.81;85.49;100645.94;5155388;27;20056;-83
2022/05/27 00:07:09;;;;;;;8.30;1.60;;;;;;;11.58;88.21;100666.19;5135381;27;20047;-82
2022/05/27 00:09:36;;;;;;;8.55;2.22;;;;;;;11.37;88.68;100647.81;5146871;27;20053;-82
2022/05/27 00:12:03;;;;;;;5.15;1.17;;;;;;;11.36;88.22;100621.66;5154755;27;20130;-83
2022/05/27 00:14:30;;;;;;;9.18;1.60;;;;;;;11.71;86.51;100645.53;5154360;27;20117;-82
2022/05/27 00:16:57;;;;;;;2.03;0.93;;;;;;;11.73;85.83;100654.16;5148247;27;20043;-82
2022/05/27 00:19:24;;;;;;;7.05;1.50;;;;;;;11.62;88.16;100669.53;5135193;27;20484;-82
2022/05/27 00:21:50;;;;;;;6.88;1.60;;;;;;;11.74;88.49;100676.88;5133959;27;20077;-82
2022/05/27 00:24:17;;;;;;;6.05;1.55;;;;;;;11.83;87.83;100676.47;5134612;27;20062;-82
2022/05/27 00:26:44;;;;;;;5.25;1.30;;;;;;;11.49;88.95;100661.31;5134779;27;20049;-82
2022/05/27 00:29:11;;;;;;;6.72;1.25;;;;;;;11.88;87.92;100677.13;5133268;27;20047;-82
2022/05/27 00:31:38;;;;;;;5.05;1.20;;;;;;;11.73;87.97;100668.13;5132849;27;20043;-82
2022/05/27 00:34:05;;;;;;;5.03;1.20;;;;;;;11.92;85.80;100681.34;5134899;27;20047;-82
2022/05/27 00:36:31;;;;;;;4.65;1.20;;;;;;;11.92;86.69;100689.19;5135648;27;20480;-82
2022/05/27 00:39:01;;;;;;;6.80;1.30;;;;;;;11.60;87.17;100682.69;5141444;27;20428;-82
2022/05/27 00:41:28;;;;;;;5.03;1.38;;;;;;;11.43;87.53;100630.13;5155491;27;20075;-82
2022/05/27 00:43:55;;;;;;;6.32;1.00;;;;;;;11.70;88.18;100693.63;5155331;27;20050;-82
2022/05/27 00:46:27;;;;;;;6.07;1.10;;;;;;;11.55;88.99;100682.03;5152466;27;20039;-82
2022/05/27 00:49:12;;;;;;;3.92;1.20;;;;;;;11.61;88.52;100700.13;5154282;27;20488;-82
2022/05/27 00:51:45;;;;;;;5.10;1.00;;;;;;;11.56;92.38;100702.09;5153716;27;20051;-82
2022/05/27 00:54:16;;;;;;;2.92;1.10;;;;;;;11.65;89.11;100695.59;5133498;27;20039;-82
2022/05/27 00:56:47;;;;;;;2.15;0.98;;;;;;;11.35;90.41;100688.97;5134352;27;20043;-82
2022/05/27 00:59:22;;;;;;;7.35;1.15;;;;;;;11.61;90.75;100705.38;5132729;27;20047;-82
2022/05/27 01:01:49;;;;;;;3.28;1.10;;;;;;;11.29;89.90;100659.53;5132779;27;20047;-82
2022/05/27 01:04:17;;;;;;;4.38;1.02;;;;;;;11.35;91.04;100690.72;5133075;27;20119;-83
2022/05/27 01:06:45;;;;;;;3.67;1.05;;;;;;;11.27;91.19;100700.69;5138851;27;20061;-82
2022/05/27 01:09:13;;;;;;;4.60;1.15;;;;;;;11.05;91.84;100661.41;5154045;27;20057;-82
2022/05/27 01:12:16;;;;;;;3.00;1.00;;;;;;;11.49;90.32;100705.88;5153140;27;20492;-83
2022/05/27 01:15:08;;;;;;;2.47;0.90;;;;;;;11.31;91.98;100708.34;5141129;27;20495;-83
2022/05/27 01:17:53;;;;;;;1.85;0.80;;;;;;;11.29;91.79;100702.31;5150114;27;20043;-83
2022/05/27 01:20:38;;;;;;;3.50;1.20;;;;;;;11.10;93.56;100697.00;5153930;27;20058;-83
2022/05/27 01:23:17;;;;;;;2.85;1.05;;;;;;;11.00;94.28;100699.13;5153431;27;20134;-82
2022/05/27 01:26:08;;;;;;;2.20;1.00;;;;;;;11.16;93.40;100701.97;5153862;27;20081;-82
2022/05/27 01:28:41;;;;;;;2.42;1.00;;;;;;;11.28;93.41;100700.63;5140810;27;20043;-82
2022/05/27 01:31:11;;;;;;;4.07;1.20;;;;;;;11.38;91.97;100695.84;5131454;27;20503;-82
2022/05/27 01:34:06;;;;;;;4.90;1.02;;;;;;;11.16;92.72;100699.34;5143963;27;20647;-82
2022/05/27 01:37:02;;;;;;;2.35;1.00;;;;;;;11.35;91.76;100691.59;5150742;27;20055;-82
2022/05/27 01:39:58;;;;;;;5.55;1.15;;;;;;;11.25;92.51;100682.41;5140634;27;20047;-82
2022/05/27 01:42:36;;;;;;;3.97;1.27;;;;;;;11.21;92.89;100686.06;5133480;27;20051;-82
2022/05/27 01:45:05;;;;;;;6.82;1.30;;;;;;;11.27;93.52;100704.16;5132208;27;20572;-83
2022/05/27 01:47:47;;;;;;;5.40;1.20;;;;;;;11.18;95.08;100702.75;5134288;27;20051;-83
2022/05/27 01:50:26;;;;;;;4.43;1.00;;;;;;;11.15;96.17;100700.25;5152131;27;20049;-82
2022/05/27 01:52:58;;;;;;;8.68;1.40;;;;;;;10.55;98.32;100655.50;5150773;27;20118;-83
2022/05/27 01:56:08;;;;;;;6.13;1.15;;;;;;;11.06;99.62;100718.13;5153015;27;20057;-83
2022/05/27 01:58:41;;;;;;;7.13;1.27;;;;;;;11.09;98.07;100697.06;5108229;27;20768;-83
2022/05/27 02:01:11;;;;;;;;;;;;;;;11.10;99.63;100707.47;5148907;27;20589;-83
2022/05/27 02:03:44;;;;;;;2.50;1.00;;;;;;;10.79;100.00;100681.63;5152180;27;19919;-83
2022/05/27 02:06:20;;;;;;;2.45;0.90;;;;;;;10.95;100.00;100706.31;5135916;27;20051;-83
2022/05/27 02:09:04;;;;;;;4.07;1.10;;;;;;;11.01;100.00;100705.19;5148273;27;20393;-82
2022/05/27 02:11:32;;;;;;;6.20;1.13;;;;;;;10.73;100.00;100646.06;5132526;27;20078;-81
2022/05/27 02:14:17;;;;;;;3.13;1.00;;;;;;;10.59;100.00;100656.25;5132764;27;20050;-81
2022/05/27 02:17:02;;;;;;;2.38;1.00;;;;;;;11.17;100.00;100714.19;5134610;27;20477;-81
2022/05/27 02:19:44;;;;;;;5.03;1.27;;;;;;;11.03;100.00;100685.06;5134231;27;20126;-81
2022/05/27 02:22:32;;;;;;;2.28;0.98;;;;;;;11.17;100.00;100711.56;5132263;27;20135;-82
2022/05/27 02:25:04;;;;;;;6.07;1.40;;;;;;;10.97;100.00;100693.16;5133425;27;20043;-82
2022/05/27 02:27:37;;;;;;;4.88;1.88;;;;;;;10.75;100.00;100657.34;5142591;27;20051;-82
2022/05/27 02:30:09;;;;;;;5.32;1.30;;;;;;;10.97;99.53;100680.91;5153122;27;20043;-83
2022/05/27 02:32:45;;;;;;;3.42;0.93;;;;;;;11.09;99.94;100697.91;5149378;27;20097;-83
2022/05/27 02:35:25;;;;;;;5.70;1.13;;;;;;;10.85;100.00;100702.34;5132889;27;20045;-83
2022/05/27 02:37:56;;;;;;;1.73;0.90;;;;;;;11.22;100.00;100724.47;5133409;27;20050;-82
2022/05/27 02:40:29;;;;;;;3.00;1.00;;;;;;;10.62;100.00;100705.84;5152133;27;20447;-83
2022/05/27 02:43:04;;;;;;;7.68;1.55;;;;;;;11.00;100.00;100740.19;5157143;27;20603;-82
2022/05/27 02:45:53;;;;;;;9.48;1.30;;;;;;;10.79;100.00;100679.03;5159984;27;20558;-83
2022/05/27 02:48:39;;;;;;;3.05;1.10;;;;;;;11.07;100.00;100748.69;5155383;27;20042;-82
2022/05/27 02:51:39;;;;;;;6.25;1.55;;;;;;;11.17;100.00;100735.16;5160304;27;20047;-83
2022/05/27 02:54:36;;;;;;;2.92;1.10;;;;;;;11.14;100.00;100748.34;5142684;27;20031;-83
2022/05/27 02:57:25;;;;;;;5.85;1.20;;;;;;;11.16;100.00;100759.63;5141143;27;20058;-83
2022/05/27 02:59:53;;;;;;;6.85;1.17;;;;;;;10.66;100.00;100751.09;5145730;27;20051;-83
2022/05/27 03:02:20;;;;;;;3.38;1.08;;;;;;;10.91;100.00;100744.03;5159292;27;20400;-83
2022/05/27 03:04:51;;;;;;;8.40;1.40;;;;;;;10.70;100.00;100750.09;5159031;27;20046;-83
2022/05/27 03:07:42;;;;;;;9.43;1.48;;;;;;;10.80;100.00;100765.41;5146045;27;20489;-83
2022/05/27 03:10:18;;;;;;;7.90;1.40;;;;;;;11.08;100.00;100760.84;5155879;27;20057;-83
2022/05/27 03:13:06;;;;;;;2.05;1.08;;;;;;;11.05;100.00;100763.56;5159693;27;20539;-83
2022/05/27 03:15:51;;;;;;;4.82;1.40;;;;;;;11.01;100.00;100763.72;5158004;27;20038;-83
2022/05/27 03:18:59;;;;;;;6.55;1.30;;;;;;;10.96;100.00;100763.03;5157101;27;20112;-83
2022/05/27 03:21:35;;;;;;;5.25;1.30;;;;;;;10.81;100.00;100735.66;5141585;27;20057;-83
2022/05/27 03:24:08;;;;;;;5.32;1.30;;;;;;;10.90;100.00;100765.03;5137910;27;20043;-83
2022/05/27 03:26:41;;;;;;;3.10;1.38;;;;;;;11.11;100.00;100764.19;5139828;27;20047;-83
2022/05/27 03:29:36;;;;;;;5.50;1.30;;;;;;;10.82;100.00;100781.06;5136527;27;20137;-83
2022/05/27 03:32:25;;;;;;;4.80;2.25;;;;;;;10.47;100.00;100702.06;5137795;27;20047;-83
2022/05/27 03:35:08;;;;;;;4.95;1.10;;;;;;;10.89;100.00;100747.59;5139791;27;20047;-83
2022/05/27 03:38:04;;;;;;;2.00;0.93;;;;;;;11.06;100.00;100754.81;5139892;27;20039;-83
2022/05/27 03:41:06;;;;;;;4.72;1.10;;;;;;;11.11;100.00;100769.44;5154779;27;20493;-84
2022/05/27 03:43:35;;;;;;;4.20;1.10;;;;;;;10.52;100.00;100762.97;5158441;27;20073;-83
2022/05/27 03:46:03;;;;;;;3.92;1.15;;;;;;;10.85;100.00;100769.59;5157901;27;20081;-83
2022/05/27 03:48:32;;;;;;;5.25;1.30;;;;;;;10.58;100.00;100728.69;5156577;27;20138;-83
2022/05/27 03:51:06;;;;;;;3.38;1.00;;;;;;;11.05;100.00;100776.69;5153056;27;20043;-83
2022/05/27 03:56:18;;;;;;;2.72;1.02;;;;;;;10.98;100.00;100744.66;5135050;27;20047;-83
2022/05/27 03:58:45;;;;;;;4.90;1.27;;;;;;;10.55;100.00;100748.88;5134038;27;20051;-83
2022/05/27 04:01:12;;;;;;;5.05;1.13;;;;;;;11.04;100.00;100775.84;5151474;27;20042;-83
2022/05/27 04:03:38;;;;;;;5.53;1.30;;;;;;;10.82;100.00;100732.13;5155772;27;20061;-83
2022/05/27 04:06:05;;;;;;;6.03;1.23;;;;;;;10.98;100.00;100726.31;5153468;27;20050;-83
2022/05/27 04:08:32;;;;;;;2.25;0.80;;;;;;;10.94;100.00;100748.28;5151411;27;20054;-83
2022/05/27 04:10:59;;;;;;;3.80;1.10;;;;;;;10.74;100.00;100705.38;5135874;27;20047;-83
2022/05/27 04:13:25;;;;;;;4.80;1.00;;;;;;;11.39;100.00;100763.94;5134268;27;20387;-83
2022/05/27 04:15:52;;;;;;;5.60;1.17;;;;;;;11.67;100.00;100775.06;5134433;27;20465;-83
2022/05/27 04:18:19;;;;;;;4.13;1.00;;;;;;;11.31;100.00;100744.19;5151059;27;20042;-83
2022/05/27 04:20:46;;;;;;;6.57;1.00;;;;;;;11.65;100.00;100746.31;5154274;27;20050;-83
2022/05/27 04:23:12;;;;;;;4.35;1.10;;;;;;;12.06;98.32;100735.84;5155306;27;20047;-83
2022/05/27 04:25:39;;;;;;;4.82;1.20;;;;;;;12.37;96.61;100754.63;5154805;27;20049;-84
2022/05/27 04:28:06;;;;;;;5.18;1.30;;;;;;;12.85;90.53;100756.75;5153570;27;20056;-84
2022/05/27 04:30:33;;;;;;;5.35;1.35;;;;;;;13.05;88.18;100715.53;5147646;27;20049;-84
2022/05/27 04:32:59;;;;;;;3.88;1.05;;;;;;;13.59;83.16;100760.28;5143658;27;20039;-84
2022/05/27 04:35:26;;;;;;;4.93;1.00;;;;;;;13.94;80.74;100776.94;5154989;27;20050;-84
2022/05/27 04:37:53;;;;;;;5.50;1.38;;;;;;;14.04;78.52;100732.53;5138433;27;20049;-84
2022/05/27 04:40:19;;;;;;;3.67;1.00;;;;;;;13.88;76.54;100768.50;5153287;27;20403;-84
2022/05/27 04:42:46;;;;;;;4.53;1.10;;;;;;;14.60;75.03;100791.94;5154545;27;20046;-84
2022/05/27 04:45:13;;;;;;;5.65;1.52;;;;;;;13.88;75.61;100771.13;5153955;27;20053;-85
2022/05/27 04:47:40;;;;;;;2.60;0.90;;;;;;;13.83;75.36;100769.59;5152849;27;20054;-84
2022/05/27 04:50:10;;;;;;;4.18;1.27;;;;;;;13.40;77.94;100795.41;5154065;27;20051;-83
2022/05/27 04:52:38;;;;;;;7.50;1.75;;;;;;;13.29;80.87;100806.38;5138154;27;20130;-84
2022/05/27 04:55:09;;;;;;;6.15;1.20;;;;;;;13.17;80.33;100787.72;5133726;27;20062;-84
2022/05/27 04:57:50;;;;;;;7.03;1.38;;;;;;;12.85;84.11;100811.09;5136962;27;20051;-83
2022/05/27 05:00:20;;;;;;;4.90;1.15;;;;;;;12.63;85.65;100798.09;5144434;27;20498;-84
2022/05/27 05:02:47;;;;;;;5.95;1.10;;;;;;;12.70;86.45;100794.28;5143550;27;20074;-84
2022/05/27 05:05:17;;;;;;;6.30;1.55;;;;;;;12.73;86.58;100784.47;5143793;27;20477;-84
2022/05/27 05:07:47;;;;;;;5.72;1.08;;;;;;;12.64;87.42;100791.91;5139551;27;20043;-84
2022/05/27 05:10:17;;;;;;;8.68;1.20;;;;;;;12.53;88.44;100787.97;5145473;27;20053;-84
2022/05/27 05:12:44;;;;;;;5.75;1.30;;;;;;;12.83;87.90;100824.31;5141432;27;20061;-84
2022/05/27 05:15:12;;;;;;;4.97;1.10;;;;;;;12.80;88.14;100837.59;5146251;27;20043;-84
2022/05/27 05:17:39;;;;;;;5.22;1.23;;;;;;;12.68;87.41;100786.47;5144625;27;20043;-84
2022/05/27 05:20:07;;;;;;;4.63;1.20;;;;;;;13.02;86.85;100832.19;5142873;27;20054;-84
2022/05/27 05:22:34;;;;;;;4.10;1.00;;;;;;;12.75;87.45;100804.56;5142496;27;20495;-84
2022/05/27 05:25:01;;;;;;;5.50;1.33;;;;;;;12.72;89.23;100832.66;5143872;27;20518;-84
2022/05/27 05:27:29;;;;;;;5.55;1.42;;;;;;;12.40;90.07;100794.72;5144036;27;20047;-84
2022/05/27 05:29:56;;;;;;;5.93;1.30;;;;;;;12.23;95.37;100833.97;5143960;27;20065;-84
2022/05/27 05:32:23;;;;;;;4.55;1.10;;;;;;;12.39;97.25;100836.78;5146400;27;20051;-84
2022/05/27 05:34:53;;;;;;;10.07;1.90;;;;;;;12.79;92.69;100822.75;5144423;27;20047;-84
2022/05/27 05:37:21;;;;;;;5.45;1.23;;;;;;;12.57;93.63;100822.88;5140508;27;20047;-84
2022/05/27 05:39:47;;;;;;;4.70;1.13;;;;;;;12.46;94.71;100811.97;5144896;27;20137;-83
2022/05/27 05:42:14;;;;;;;6.97;1.48;;;;;;;11.96;100.00;100821.13;5146723;27;20053;-83
2022/05/27 05:44:41;;;;;;;8.00;1.45;;;;;;;12.31;98.22;100810.88;5141181;27;20131;-83
2022/05/27 05:47:08;;;;;;;10.35;2.35;;;;;;;12.30;98.53;100804.75;5148626;27;20051;-82
2022/05/27 05:49:34;;;;;;;7.30;1.55;;;;;;;13.02;92.96;100786.69;5152703;27;20053;-82
2022/05/27 05:52:02;;;;;;;6.32;1.58;;;;;;;14.11;87.96;100830.50;5147509;27;20078;-84
2022/05/27 05:54:29;;;;;;;6.32;1.17;;;;;;;15.19;80.98;100841.50;5149387;27;20597;-84
2022/05/27 05:57:01;;;;;;;8.13;1.80;;;;;;;15.10;77.79;100834.97;5139445;27;20043;-85
2022/05/27 05:59:30;;;;;;;7.85;1.52;;;;;;;14.51;79.18;100826.66;5148628;27;20058;-84
2022/05/27 06:01:58;;;;;;;4.15;1.20;;;;;;;14.31;80.42;100851.41;5160640;27;20049;-85
2022/05/27 06:04:25;;;;;;;6.85;1.40;;;;;;;13.96;83.30;100855.84;5141528;27;20082;-85
2022/05/27 06:06:52;;;;;;;5.25;1.23;;;;;;;13.88;82.04;100834.28;5142758;27;20377;-85
2022/05/27 06:09:25;;;;;;;7.82;1.38;;;;;;;14.97;78.15;100855.88;5144548;27;20050;-86
2022/05/27 06:11:54;;;;;;;5.25;1.05;;;;;;;15.55;74.32;100825.41;5141732;27;20043;-85
2022/05/27 06:14:21;;;;;;;4.10;1.10;;;;;;;15.48;72.72;100844.31;5145182;27;20051;-85
2022/05/27 06:16:48;;;;;;;3.95;0.90;;;;;;;15.37;72.16;100816.75;5142803;27;20122;-85
2022/05/27 06:19:15;;;;;;;5.28;1.23;;;;;;;15.43;73.36;100827.91;5144113;27;20094;-85
2022/05/27 06:21:43;;;;;;;2.53;0.75;;;;;;;15.19;72.85;100850.28;5143535;27;20385;-85
2022/05/27 06:24:12;;;;;;;4.28;1.08;;;;;;;14.14;77.80;100844.34;5146462;27;20080;-85
2022/05/27 06:26:39;;;;;;;6.30;1.20;;;;;;;15.30;75.66;100844.41;5144218;27;20042;-86
2022/05/27 06:34:57;;;;;;;4.38;1.05;;;;;;;15.09;75.64;100858.78;5082306;28;20060;-85
2022/05/27 06:37:24;;;;;;;6.50;1.10;;;;;;;14.81;78.96;100828.63;5088235;28;20051;-85
2022/05/27 06:39:52;;;;;;;6.65;1.10;;;;;;;15.20;79.27;100832.66;5116828;27;20125;-85
2022/05/27 06:42:20;;;;;;;4.28;0.90;;;;;;;16.15;77.67;100860.72;5146700;27;20053;-85
2022/05/27 06:45:05;;;;;;;5.05;1.08;;;;;;;16.39;75.75;100865.50;5137403;27;20054;-85
2022/05/27 06:47:32;;;;;;;4.57;1.05;;;;;;;15.68;76.57;100865.13;5142435;27;20051;-84
2022/05/27 06:49:59;;;;;;;4.10;0.90;;;;;;;15.96;77.15;100881.25;5142407;27;20464;-87
2022/05/27 06:52:26;;;;;;;6.25;1.00;;;;;;;16.12;77.17;100856.47;5143739;27;20546;-87
2022/05/27 06:54:53;;;;;;;5.85;1.00;;;;;;;15.64;77.32;100862.78;5139227;27;20058;-87
2022/05/27 06:57:20;;;;;;;7.13;1.10;;;;;;;15.81;77.91;100889.09;5131588;27;20126;-86
2022/05/27 06:59:47;;;;;;;3.80;0.85;;;;;;;15.47;79.34;100880.38;5140633;27;20059;-86
2022/05/27 07:02:14;;;;;;;3.83;1.20;;;;;;;14.81;84.50;100868.19;5148667;27;20057;-87
2022/05/27 07:04:41;;;;;;;4.97;1.10;;;;;;;14.88;87.50;100900.34;5153071;27;20043;-86
2022/05/27 07:07:09;;;;;;;10.65;1.33;;;;;;;14.57;94.11;100896.63;5150974;27;20047;-86
2022/05/27 07:09:36;;;;;;;4.18;1.00;;;;;;;13.96;100.00;100919.00;5137040;27;20047;-87
2022/05/27 07:12:06;;;;;;;3.63;1.05;;;;;;;14.28;100.00;100935.84;5139567;27;20133;-87
2022/05/27 07:14:33;;;;;;;1.95;0.82;;;;;;;14.01;100.00;100973.13;5131470;28;20719;-87
2022/05/27 07:17:00;;;;;;;6.18;1.10;;;;;;;13.97;100.00;100920.69;5137596;27;20397;-87
2022/05/27 07:19:40;;;;;;;2.38;0.80;;;;;;;14.70;93.83;100931.16;5147132;27;20053;-90
2022/05/27 07:22:08;;;;;;;1.63;0.73;;;;;;;15.12;91.13;100946.50;5147831;27;21020;-87
2022/05/27 07:24:37;;;;;;;2.78;0.75;;;;;;;14.45;95.53;100945.53;5152917;27;20480;-87
2022/05/27 07:27:04;;;;;;;2.90;0.77;;;;;;;14.81;95.24;100932.28;5145065;27;20039;-87
2022/05/27 07:29:31;;;;;;;4.25;0.85;;;;;;;15.37;89.63;100929.34;5143689;27;20047;-87
2022/05/27 07:31:58;;;;;;;2.15;0.80;;;;;;;15.55;84.25;100891.38;5145600;27;20047;-88
2022/05/27 07:34:25;;;;;;;2.45;0.77;;;;;;;14.80;92.00;100906.88;5143918;27;20062;-88
2022/05/27 07:36:52;;;;;;;2.45;0.60;;;;;;;15.66;91.04;100893.41;5149405;27;20058;-86
2022/05/27 07:39:19;;;;;;;1.38;0.63;;;;;;;15.96;85.52;100905.00;5151225;27;20049;-88
2022/05/27 07:41:45;;;;;;;3.47;0.70;;;;;;;16.69;81.78;100918.31;5145278;27;20073;-88
2022/05/27 07:44:12;;;;;;;3.08;1.02;;;;;;;16.81;83.43;100933.41;5141144;27;20487;-88
2022/05/27 07:46:39;;;;;;;2.42;0.70;;;;;;;16.04;84.72;100943.25;5149075;27;20051;-88
2022/05/27 07:49:07;;;;;;;3.47;0.88;;;;;;;16.59;82.29;100970.88;5157331;27;20503;-87
2022/05/27 07:51:54;;;;;;;2.72;0.75;;;;;;;16.54;76.63;100890.13;5156449;27;20403;-88
2022/05/27 07:54:21;;;;;;;1.90;0.70;;;;;;;17.00;76.38;100950.88;5155338;27;20130;-88
2022/05/27 07:56:48;;;;;;;6.22;0.90;;;;;;;17.02;75.76;100930.44;5138357;27;20038;-88
2022/05/27 07:59:15;;;;;;;2.80;0.60;;;;;;;17.56;73.00;100914.69;5135076;27;20051;-88
2022/05/27 08:01:41;;;;;;;2.63;0.80;;;;;;;16.47;75.87;100930.16;5143104;27;20046;-87
2022/05/27 08:04:08;;;;;;;2.15;0.70;;;;;;;17.25;76.55;100968.72;5137610;27;20104;-87
2022/05/27 08:06:35;;;;;;;2.58;0.70;;;;;;;16.62;77.58;100948.69;5149290;27;20116;-87
2022/05/27 08:09:10;;;;;;;2.35;0.60;;;;;;;16.22;81.25;100936.03;5140169;27;20584;-87
2022/05/27 08:11:37;;;;;;;4.10;0.80;;;;;;;16.92;79.52;100980.41;5135205;27;20043;-85
2022/05/27 08:14:05;;;;;;;3.05;0.70;;;;;;;15.85;83.83;100959.28;5134225;27;20111;-84
2022/05/27 08:16:33;;;;;;;4.15;0.60;;;;;;;15.70;85.62;100981.19;5138008;27;20047;-85
2022/05/27 08:19:00;;;;;;;2.03;0.73;;;;;;;15.63;85.46;100974.56;5151521;27;20059;-85
2022/05/27 08:21:27;;;;;;;1.55;0.68;;;;;;;15.85;86.32;100972.47;5154534;27;20057;-85
2022/05/27 08:23:55;;;;;;;3.75;1.05;;;;;;;16.59;85.10;100985.88;5154381;27;20129;-85
2022/05/27 08:26:21;;;;;;;2.72;0.80;;;;;;;16.62;83.01;100978.59;5152225;27;20045;-85
2022/05/27 08:28:48;;;;;;;3.33;0.85;;;;;;;16.14;79.94;100930.34;5155387;27;20046;-85
2022/05/27 08:31:16;;;;;;;3.42;0.80;;;;;;;16.48;81.58;100992.66;5136228;27;20130;-85
2022/05/27 08:39:15;;;;;;;4.43;1.02;;;;;;;16.46;83.57;101010.38;5141094;27;20046;-85
2022/05/27 08:42:06;;;;;;;5.82;1.00;;;;;;;16.42;81.76;101006.22;5133869;27;20043;-85
2022/05/27 08:44:47;;;;;;;2.92;0.77;;;;;;;15.98;77.36;100990.25;5133359;27;20135;-85
2022/05/27 08:47:19;;;;;;;6.38;1.10;;;;;;;16.05;79.99;101000.38;5143394;27;20049;-85
2022/05/27 08:49:50;;;;;;;5.93;1.20;;;;;;;15.82;81.67;100954.16;5147424;27;20051;-84
2022/05/27 08:52:29;;;;;;;4.13;0.80;;;;;;;16.41;80.81;101015.06;5133800;27;20051;-85
2022/05/27 08:55:03;;;;;;;4.60;0.90;;;;;;;16.52;78.40;101015.31;5150528;27;20603;-85
2022/05/27 09:00:27;;;;;;;7.05;1.00;;;;;;;16.56;78.03;101013.34;5143607;27;20047;-84
2022/05/27 09:02:53;;;;;;;2.47;0.90;;;;;;;16.30;80.96;101020.13;5133733;27;20492;-85
2022/05/27 09:05:39;;;;;;;5.28;0.93;;;;;;;17.04;78.33;101026.44;5148968;27;20042;-85
2022/05/27 09:08:16;;;;;;;5.88;1.17;;;;;;;16.62;79.67;101026.19;5133487;27;20051;-84
2022/05/27 09:11:07;;;;;;;3.63;1.17;;;;;;;16.56;79.46;101031.84;5133019;27;20397;-85
2022/05/27 09:13:47;;;;;;;3.15;0.88;;;;;;;17.13;75.59;100996.78;5133135;27;20055;-85
2022/05/27 09:16:33;;;;;;;4.63;0.95;;;;;;;16.84;75.33;101039.06;5133615;27;20039;-85
2022/05/27 09:19:25;;;;;;;2.35;1.15;;;;;;;16.98;74.12;101027.66;5133089;27;20047;-84
2022/05/27 09:22:19;;;;;;;7.55;1.02;;;;;;;16.86;72.85;101029.22;5154777;27;20051;-84
2022/05/27 09:25:22;;;;;;;5.55;0.80;;;;;;;15.96;74.58;101059.00;5154120;27;20477;-85
2022/05/27 09:28:14;;;;;;;5.43;1.00;;;;;;;16.36;74.33;101027.72;5153737;27;20080;-84
2022/05/27 09:30:42;;;;;;;3.72;0.80;;;;;;;16.30;76.05;101044.75;5139404;27;20405;-85
2022/05/27 09:33:16;;;;;;;7.93;1.05;;;;;;;16.96;74.68;101041.91;5132603;27;20051;-85
2022/05/27 09:35:56;;;;;;;5.05;1.00;;;;;;;16.95;74.03;101049.00;5148243;27;20049;-85
2022/05/27 09:38:27;;;;;;;2.80;0.90;;;;;;;17.12;73.76;101053.25;5149579;27;20043;-85
2022/05/27 09:41:12;;;;;;;5.05;0.95;;;;;;;16.90;74.05;101037.84;5150613;27;20137;-85
2022/05/27 09:43:56;;;;;;;5.75;0.95;;;;;;;16.97;73.10;101039.16;5153587;27;20061;-85
2022/05/27 09:46:30;;;;;;;4.93;1.08;;;;;;;17.50;73.62;101050.09;5150832;27;20043;-85
2022/05/27 09:48:57;;;;;;;6.85;1.05;;;;;;;17.11;71.76;101071.91;5148861;27;20043;-88
2022/05/27 09:51:28;;;;;;;3.72;0.93;;;;;;;16.36;70.78;101040.94;5131304;27;20055;-88
2022/05/27 09:54:13;;;;;;;3.22;0.70;;;;;;;16.57;71.26;101065.25;5141138;27;20047;-88
2022/05/27 09:56:56;;;;;;;2.60;0.70;;;;;;;17.05;69.29;101050.16;5134744;27;20456;-88
2022/05/27 09:59:25;;;;;;;6.18;0.90;;;;;;;17.45;68.03;101100.66;5149122;27;20039;-87
2022/05/27 10:02:22;;;;;;;3.35;0.80;;;;;;;17.97;67.16;101086.03;5150863;27;20055;-87
2022/05/27 10:05:08;;;;;;;4.50;0.70;;;;;;;16.93;66.27;101064.09;5151946;27;20042;-87
2022/05/27 10:07:42;;;;;;;2.33;0.63;;;;;;;16.65;69.72;101110.63;5137582;27;20055;-88
2022/05/27 10:10:25;;;;;;;3.80;0.73;;;;;;;16.69;68.86;101053.97;5131481;27;20821;-88
2022/05/27 10:12:52;;;;;;;2.55;0.80;;;;;;;16.70;69.07;101084.78;5132102;27;20548;-88
2022/05/27 10:15:33;;;;;;;5.47;0.90;;;;;;;16.87;67.07;101080.31;5133371;27;20049;-89
2022/05/27 10:18:25;;;;;;;1.52;0.80;;;;;;;17.92;66.67;101111.09;5132446;27;20051;-88
2022/05/27 10:20:52;;;;;;;4.90;1.00;;;;;;;17.79;68.01;101116.28;5148929;27;20134;-88
2022/05/27 10:23:29;;;;;;;4.63;1.00;;;;;;;17.25;69.10;101114.25;5154027;27;20047;-88
2022/05/27 10:25:58;;;;;;;2.75;0.80;;;;;;;17.57;68.43;101101.72;5151858;27;20181;-88
2022/05/27 10:28:29;;;;;;;2.38;0.82;;;;;;;17.90;68.96;101103.25;5151721;27;20042;-88
2022/05/27 10:31:00;;;;;;;4.60;1.00;;;;;;;17.42;68.08;101145.88;5135120;27;20524;-88
2022/05/27 10:33:43;;;;;;;3.58;0.95;;;;;;;17.78;67.09;101130.47;5132167;27;20051;-88
2022/05/27 10:36:55;;;;;;;4.15;1.00;;;;;;;17.89;68.72;101129.84;5133791;27;20077;-88
2022/05/27 10:39:36;;;;;;;3.55;1.00;;;;;;;17.11;78.31;101136.22;5095396;27;20050;-87
2022/05/27 10:42:34;;;;;;;4.95;1.60;;;;;;;16.39;100.00;101151.72;5132030;28;20043;-87
2022/05/27 10:45:23;;;;;;;4.10;1.02;;;;;;;16.19;100.00;101165.19;5131859;28;20062;-87
2022/05/27 10:48:04;;;;;;;5.80;1.23;;;;;;;15.67;100.00;101176.69;5132646;27;20053;-88
2022/05/27 10:50:40;;;;;;;5.20;1.10;;;;;;;15.41;100.00;101181.53;5131677;27;20122;-88
2022/05/27 10:53:13;;;;;;;3.80;1.25;;;;;;;15.55;100.00;101170.28;5132016;27;20051;-88
2022/05/27 10:56:12;;;;;;;2.33;0.90;;;;;;;16.40;100.00;101166.66;5152656;27;20046;-88
2022/05/27 11:02:04;;;;;;;4.70;1.10;;;;;;;15.79;100.00;101181.34;5132640;27;20053;-88
2022/05/27 11:04:53;;;;;;;2.83;0.90;;;;;;;16.62;100.00;101174.22;5134921;27;20104;-87
2022/05/27 11:07:36;;;;;;;5.65;1.17;;;;;;;15.85;90.64;101172.28;5138006;27;20043;-87
2022/05/27 11:10:06;;;;;;;;;;;;;;;17.28;88.70;101188.16;5138294;27;20047;-88
2022/05/27 11:16:06;;;;;;;3.65;0.90;;;;;;;16.84;84.03;101183.66;5137192;27;20052;-88
2022/05/27 11:18:54;;;;;;;5.38;1.00;;;;;;;16.63;85.36;101183.03;5155724;27;20050;-87
2022/05/27 11:21:32;;;;;;;2.22;0.80;;;;;;;16.73;83.04;101186.00;5135417;27;20047;-88
2022/05/27 11:24:15;;;;;;;4.78;1.02;;;;;;;16.48;88.79;101179.44;5135384;27;20069;-88
2022/05/27 11:27:02;;;;;;;3.10;1.02;;;;;;;16.93;83.38;101158.44;5139245;27;20077;-88
2022/05/27 11:29:47;;;;;;;6.55;1.40;;;;;;;17.00;81.23;101154.53;5122649;27;20609;-87
2022/05/27 11:32:40;;;;;;;1.70;0.80;;;;;;;16.77;84.23;101192.81;5157633;27;20050;-85
2022/05/27 11:35:31;;;;;;;7.68;1.40;;;;;;;16.88;81.22;101190.47;5156809;27;20051;-87
2022/05/27 11:38:03;;;;;;;4.18;0.80;;;;;;;16.69;80.12;101156.25;5156499;27;20130;-85
2022/05/27 11:40:36;;;;;;;2.53;0.80;;;;;;;17.17;76.77;101198.50;5153980;27;20137;-87
2022/05/27 11:43:42;;;;;;;5.00;1.00;;;;;;;17.26;74.14;101161.81;5155111;27;20047;-87
2022/05/27 11:46:27;;;;;;;5.47;0.90;;;;;;;17.11;75.86;101199.72;5140275;27;20047;-86
2022/05/27 11:49:31;;;;;;;6.88;1.10;;;;;;;18.04;72.52;101213.66;5136980;27;20043;-86
2022/05/27 11:52:10;;;;;;;3.78;1.10;;;;;;;17.56;71.06;101226.22;5137396;27;20066;-86
2022/05/27 11:55:14;;;;;;;4.97;0.98;;;;;;;17.44;72.25;101246.31;5140551;27;20050;-86
2022/05/27 11:57:54;;;;;;;3.92;1.20;;;;;;;16.14;74.04;101171.56;5139520;27;20047;-86
2022/05/27 12:00:26;;;;;;;1.48;0.75;;;;;;;17.10;70.79;101236.84;5145488;27;20050;-85
2022/05/27 12:03:15;;;;;;;3.72;0.90;;;;;;;17.30;73.27;101225.09;5143692;27;20137;-85
2022/05/27 12:05:49;;;;;;;4.38;0.90;;;;;;;17.07;73.91;101259.06;5153729;27;20054;-86
2022/05/27 12:08:30;;;;;;;3.30;1.10;;;;;;;16.26;86.68;101273.09;5152119;27;20051;-86
2022/05/27 12:11:22;;;;;;;2.17;0.80;;;;;;;16.29;98.57;101266.81;5149594;27;20126;-87
2022/05/27 12:13:52;;;;;;;3.97;0.80;;;;;;;16.11;100.00;101261.56;5146664;27;20059;-87
2022/05/27 12:16:28;;;;;;;5.88;1.10;;;;;;;16.31;100.00;101257.00;5145661;27;20043;-86
2022/05/27 12:18:59;;;;;;;4.15;0.80;;;;;;;17.16;99.08;101257.69;5146805;27;20057;-87
2022/05/27 12:21:31;;;;;;;1.42;0.80;;;;;;;16.78;86.97;101235.03;5145428;27;20154;-87
2022/05/27 12:24:25;;;;;;;5.32;0.90;;;;;;;16.59;85.83;101253.72;5147130;27;20055;-87